Time;durP1;ratioP1;P1;durP2;ratioP2;P2;SDS_P1;SDS_P2;PMS_P1;PMS_P2;Temp;Humidity;BMP_temperature;BMP_pressure;BME280_temperature;BME280_humidity;BME280_pressure;Samples;Min_cycle;Max_cycle;Signal;HPM_P1;HPM_P2
2022/11/22 00:00:14;;;;;;;;;;;;;;;19.42;47.25;98827.78;5149640;27;19980;-37
2022/11/22 00:02:40;;;;;;;;;;;;;;;19.41;47.55;98834.44;5147901;27;19974;-39
2022/11/22 00:05:05;;;;;;;;;;;;;;;19.41;47.48;98831.69;5146817;27;20299;-37
2022/11/22 00:07:31;;;;;;;;;;;;;;;19.42;47.22;98838.00;5148230;27;19973;-39
2022/11/22 00:09:57;;;;;;;;;;;;;;;19.41;47.51;98834.44;5149431;27;19983;-39
2022/11/22 00:12:22;;;;;;;;;;;;;;;19.41;47.32;98834.44;5148515;27;20359;-39
2022/11/22 00:14:48;;;;;;;;;;;;;;;19.40;47.18;98830.06;5148055;27;19923;-38
2022/11/22 00:17:20;;;;;;;;;;;;;;;19.41;47.11;98834.44;5149871;27;19927;-38
2022/11/22 00:19:46;;;;;;;;;;;;;;;19.41;47.25;98833.63;5148355;27;19979;-39
2022/11/22 00:22:11;;;;;;;;;;;;;;;19.40;47.47;98830.06;5149333;27;20111;-38
2022/11/22 00:24:37;;;;;;;;;;;;;;;19.40;47.41;98832.81;5147793;27;19923;-38
2022/11/22 00:27:02;;;;;;;;;;;;;;;19.41;47.43;98826.16;5149466;27;19930;-38
2022/11/22 00:29:28;;;;;;;;;;;;;;;19.41;47.48;98825.34;5148482;27;20312;-38
2022/11/22 00:31:54;;;;;;;;;;;;;;;19.41;47.26;98823.41;5149619;27;20427;-37
2022/11/22 00:34:20;;;;;;;;;;;;;;;19.40;47.44;98824.53;5151277;27;19931;-39
2022/11/22 00:36:45;;;;;;;;;;;;;;;19.41;47.40;98833.63;5151682;27;19950;-38
2022/11/22 00:39:11;;;;;;;;;;;;;;;19.40;47.38;98829.25;5151977;27;19923;-40
2022/11/22 00:41:36;;;;;;;;;;;;;;;19.40;47.48;98838.34;5152613;27;19969;-38
2022/11/22 00:44:02;;;;;;;;;;;;;;;19.39;47.32;98836.75;5149727;27;19931;-37
2022/11/22 00:46:27;;;;;;;;;;;;;;;19.40;47.36;98845.81;5151542;27;20176;-39
2022/11/22 00:48:53;;;;;;;;;;;;;;;19.39;47.24;98847.78;5152499;27;21421;-39
2022/11/22 00:51:19;;;;;;;;;;;;;;;19.40;47.22;98837.53;5152274;27;19930;-39
2022/11/22 00:53:44;;;;;;;;;;;;;;;19.40;47.29;98845.81;5151559;27;19996;-38
2022/11/22 00:56:10;;;;;;;;;;;;;;;19.39;47.42;98841.44;5152980;27;21431;-39
2022/11/22 00:58:35;;;;;;;;;;;;;;;19.39;47.34;98842.25;5153150;27;19923;-38
2022/11/22 01:01:01;;;;;;;;;;;;;;;19.39;47.24;98839.50;5152610;27;19927;-38
2022/11/22 01:03:27;;;;;;;;;;;;;;;19.38;47.09;98843.38;5151819;27;19999;-39
2022/11/22 01:05:52;;;;;;;;;;;;;;;19.39;47.40;98839.50;5149607;27;19926;-39
2022/11/22 01:08:18;;;;;;;;;;;;;;;19.38;47.41;98840.63;5152301;27;19923;-38
2022/11/22 01:10:43;;;;;;;;;;;;;;;19.38;47.05;98837.06;5150950;27;19923;-38
2022/11/22 01:13:09;;;;;;;;;;;;;;;19.38;47.35;98837.06;5152482;27;20322;-38
2022/11/22 01:15:34;;;;;;;;;;;;;;;19.39;47.16;98844.22;5149192;27;19931;-39
2022/11/22 01:18:00;;;;;;;;;;;;;;;19.39;47.40;98844.22;5151969;27;19931;-39
2022/11/22 01:20:25;;;;;;;;;;;;;;;19.38;47.16;98846.13;5150765;27;19952;-39
2022/11/22 01:22:51;;;;;;;;;;;;;;;19.38;47.28;98843.38;5152520;27;19931;-39
2022/11/22 01:25:17;;;;;;;;;;;;;;;19.39;47.45;98849.72;5149739;27;20298;-39
2022/11/22 01:27:42;;;;;;;;;;;;;;;19.38;47.07;98845.34;5151263;27;19930;-39
2022/11/22 01:30:08;;;;;;;;;;;;;;;19.38;47.08;98839.81;5151650;27;19923;-39
2022/11/22 01:32:33;;;;;;;;;;;;;;;19.38;47.14;98848.09;5150867;27;19946;-38
2022/11/22 01:34:59;;;;;;;;;;;;;;;19.37;47.20;98855.56;5150510;27;19927;-39
2022/11/22 01:37:24;;;;;;;;;;;;;;;19.37;47.04;98861.09;5151136;27;19923;-38
2022/11/22 01:39:50;;;;;;;;;;;;;;;19.37;47.33;98852.00;5151061;27;19927;-39
2022/11/22 01:42:15;;;;;;;;;;;;;;;19.36;47.39;98848.44;5152093;27;19946;-39
2022/11/22 01:44:42;;;;;;;;;;;;;;;19.36;47.38;98851.19;5148839;27;20375;-39
2022/11/22 01:47:10;;;;;;;;;;;;;;;19.37;47.02;98855.56;5151454;27;19954;-38
2022/11/22 01:49:51;;;;;;;;;;;;;;;19.36;47.13;98859.47;5131455;27;20015;-39
2022/11/22 01:52:17;;;;;;;;;;;;;;;19.37;47.32;98865.81;5132451;27;19968;-39
2022/11/22 01:54:44;;;;;;;;;;;;;;;19.36;47.32;98853.94;5131614;27;20392;-39
2022/11/22 01:57:11;;;;;;;;;;;;;;;19.35;47.35;98863.38;5132817;27;19973;-38
2022/11/22 01:59:37;;;;;;;;;;;;;;;19.36;47.18;98856.72;5151835;27;19992;-38
2022/11/22 02:02:03;;;;;;;;;;;;;;;19.36;47.09;98866.94;5150032;27;20419;-39
2022/11/22 02:04:28;;;;;;;;;;;;;;;19.36;47.30;98866.94;5149546;27;20371;-38
2022/11/22 02:06:56;;;;;;;;;;;;;;;19.35;47.27;98874.44;5150565;27;19923;-39
2022/11/22 02:09:22;;;;;;;;;;;;;;;19.36;47.13;98875.22;5131377;27;19977;-39
2022/11/22 02:11:49;;;;;;;;;;;;;;;19.35;47.30;98877.19;5149736;27;20181;-39
2022/11/22 02:14:15;;;;;;;;;;;;;;;19.36;47.19;98876.03;5130710;27;19962;-39
2022/11/22 02:16:41;;;;;;;;;;;;;;;19.35;47.22;98882.69;5132161;27;19970;-39
2022/11/22 02:19:09;;;;;;;;;;;;;;;19.35;47.17;98892.94;5131528;27;19987;-39
2022/11/22 02:21:34;;;;;;;;;;;;;;;19.35;47.17;98892.94;5150170;27;20035;-39
2022/11/22 02:24:02;;;;;;;;;;;;;;;19.35;47.29;98890.97;5149425;27;19927;-39
2022/11/22 02:26:28;;;;;;;;;;;;;;;19.35;46.95;98888.22;5132108;27;19961;-39
2022/11/22 02:28:54;;;;;;;;;;;;;;;19.35;47.10;98890.19;5151150;27;19923;-39
2022/11/22 02:31:40;;;;;;;;;;;;;;;19.35;47.12;98896.50;5130298;27;19962;-38
2022/11/22 02:34:05;;;;;;;;;;;;;;;19.35;47.09;98899.25;5132407;27;19950;-38
2022/11/22 02:36:32;;;;;;;;;;;;;;;19.33;47.18;98898.78;5132134;27;19923;-38
2022/11/22 02:38:58;;;;;;;;;;;;;;;19.34;47.23;98907.84;5150022;27;19975;-39
2022/11/22 02:41:23;;;;;;;;;;;;;;;19.34;47.27;98896.81;5149172;27;19930;-38
2022/11/22 02:43:49;;;;;;;;;;;;;;;19.34;47.29;98894.06;5148315;27;19930;-39
2022/11/22 02:46:19;;;;;;;;;;;;;;;19.33;47.18;98915.31;5148178;27;19927;-39
2022/11/22 02:48:45;;;;;;;;;;;;;;;19.33;47.38;98912.56;5149862;27;19966;-38
2022/11/22 02:51:15;;;;;;;;;;;;;;;19.34;47.17;98903.13;5150393;27;19934;-39
2022/11/22 02:53:41;;;;;;;;;;;;;;;19.34;47.32;98916.13;5131540;27;20014;-39
2022/11/22 02:56:07;;;;;;;;;;;;;;;19.33;46.94;98912.56;5149827;27;19958;-38
2022/11/22 02:58:32;;;;;;;;;;;;;;;19.34;47.22;98918.91;5151207;27;19956;-39
2022/11/22 03:00:58;;;;;;;;;;;;;;;19.34;47.10;98910.63;5131848;27;19988;-39
2022/11/22 03:03:24;;;;;;;;;;;;;;;19.33;47.08;98909.81;5148641;27;19935;-39
2022/11/22 03:05:49;;;;;;;;;;;;;;;19.33;47.35;98920.84;5147532;27;20050;-39
2022/11/22 03:08:15;;;;;;;;;;;;;;;19.33;47.03;98928.31;5151028;27;19968;-39
2022/11/22 03:10:40;;;;;;;;;;;;;;;19.33;47.28;98928.31;5150303;27;19927;-39
2022/11/22 03:13:06;;;;;;;;;;;;;;;19.34;47.06;98929.94;5131845;27;19924;-38
2022/11/22 03:15:31;;;;;;;;;;;;;;;19.32;47.39;98924.75;5147770;27;19927;-39
2022/11/22 03:17:57;;;;;;;;;;;;;;;19.32;46.94;98929.47;5149481;27;19931;-39
2022/11/22 03:20:23;;;;;;;;;;;;;;;19.33;47.38;98937.41;5150076;27;19957;-39
2022/11/22 03:22:48;;;;;;;;;;;;;;;19.32;46.92;98940.50;5149847;27;19923;-38
2022/11/22 03:25:14;;;;;;;;;;;;;;;19.32;47.25;98937.75;5148496;27;20161;-39
2022/11/22 03:27:40;;;;;;;;;;;;;;;19.33;47.21;98953.16;5149690;27;20355;-39
2022/11/22 03:30:05;;;;;;;;;;;;;;;19.32;47.27;98952.34;5148907;27;19924;-39
2022/11/22 03:32:31;;;;;;;;;;;;;;;19.32;47.14;98955.13;5149771;27;19927;-39
2022/11/22 03:34:56;;;;;;;;;;;;;;;19.32;47.07;98957.88;5149604;27;20069;-39
2022/11/22 03:37:22;;;;;;;;;;;;;;;19.33;46.90;98961.44;5148036;27;19931;-37
2022/11/22 03:39:48;;;;;;;;;;;;;;;19.32;47.38;98966.16;5149103;27;19923;-37
2022/11/22 03:42:13;;;;;;;;;;;;;;;19.32;46.83;98971.69;5150186;27;20355;-37
2022/11/22 03:44:46;;;;;;;;;;;;;;;19.31;47.35;98970.06;5148736;27;20019;-39
2022/11/22 03:47:12;;;;;;;;;;;;;;;19.31;47.29;98967.31;5149200;27;19923;-39
2022/11/22 03:49:37;;;;;;;;;;;;;;;19.31;47.03;98959.03;5148622;27;19933;-37
2022/11/22 03:52:03;;;;;;;;;;;;;;;19.31;47.30;98961.78;5149032;27;20431;-38
2022/11/22 03:54:28;;;;;;;;;;;;;;;19.32;47.28;98962.59;5149287;27;19935;-38
2022/11/22 03:56:54;;;;;;;;;;;;;;;19.31;46.97;98967.31;5150282;27;19931;-39
2022/11/22 03:59:19;;;;;;;;;;;;;;;19.30;47.17;98979.50;5149737;27;19930;-39
2022/11/22 04:01:45;;;;;;;;;;;;;;;19.31;46.96;98972.81;5148580;27;20398;-38
2022/11/22 04:04:11;;;;;;;;;;;;;;;19.30;47.01;98971.22;5149273;27;19927;-39
2022/11/22 04:06:37;;;;;;;;;;;;;;;19.30;47.25;98966.50;5148700;27;19927;-38
2022/11/22 04:09:03;;;;;;;;;;;;;;;19.30;47.08;98965.69;5153239;27;19985;-38
2022/11/22 04:11:28;;;;;;;;;;;;;;;19.30;46.98;98976.72;5152571;27;20366;-39
2022/11/22 04:16:39;;;;;;;;;;;;;;;19.30;47.30;98971.22;5136701;27;20083;-38
2022/11/22 04:19:05;;;;;;;;;;;;;;;19.30;47.26;98973.97;5152335;27;19947;-39
2022/11/22 04:21:33;;;;;;;;;;;;;;;19.29;47.16;98978.66;5152645;27;19927;-39
2022/11/22 04:26:47;;;;;;;;;;;;;;;19.30;47.14;98973.97;5122555;27;20010;-38
2022/11/22 04:29:13;;;;;;;;;;;;;;;19.30;47.04;98972.00;5133614;27;20409;-39
2022/11/22 04:34:24;;;;;;;;;;;;;;;19.29;47.08;98977.84;5136690;27;19993;-39
2022/11/22 04:36:50;;;;;;;;;;;;;;;19.28;47.28;98982.56;5152752;27;20555;-37
2022/11/22 04:39:15;;;;;;;;;;;;;;;19.29;47.09;98988.88;5151405;27;19930;-39
2022/11/22 04:41:41;;;;;;;;;;;;;;;19.29;47.10;98988.88;5151974;27;20275;-39
2022/11/22 04:46:53;;;;;;;;;;;;;;;19.29;47.26;98986.13;5127392;27;19923;-39
2022/11/22 04:49:18;;;;;;;;;;;;;;;19.29;46.97;98991.66;5151707;27;20287;-39
2022/11/22 04:54:29;;;;;;;;;;;;;;;19.29;47.21;98997.97;5135424;27;20017;-39
2022/11/22 04:56:55;;;;;;;;;;;;;;;19.29;46.98;98988.88;5152529;27;19927;-37
2022/11/22 04:59:20;;;;;;;;;;;;;;;19.28;47.16;98990.84;5152706;27;19934;-38
2022/11/22 05:01:46;;;;;;;;;;;;;;;19.28;46.85;98993.59;5133584;27;19946;-39
2022/11/22 05:04:11;;;;;;;;;;;;;;;19.28;46.92;98996.34;5151273;27;19927;-38
2022/11/22 05:06:37;;;;;;;;;;;;;;;19.29;47.26;99002.69;5152031;27;20382;-39
2022/11/22 05:09:03;;;;;;;;;;;;;;;19.28;47.01;99001.88;5151602;27;19923;-37
2022/11/22 05:11:28;;;;;;;;;;;;;;;19.28;47.23;99003.81;5151062;27;19927;-38
2022/11/22 05:13:54;;;;;;;;;;;;;;;19.29;46.95;99005.44;5151239;27;19938;-39
2022/11/22 05:16:20;;;;;;;;;;;;;;;19.28;46.88;99003.81;5152013;27;19948;-37
2022/11/22 05:18:57;;;;;;;;;;;;;;;19.28;46.94;99001.06;5151271;27;19931;-38
2022/11/22 05:21:24;;;;;;;;;;;;;;;19.28;46.97;99009.34;5151895;27;19957;-37
2022/11/22 05:23:56;;;;;;;;;;;;;;;19.28;46.87;98999.13;5131703;27;20018;-39
2022/11/22 05:26:26;;;;;;;;;;;;;;;19.27;46.84;99003.03;5151072;27;19938;-39
2022/11/22 05:28:51;;;;;;;;;;;;;;;19.27;47.28;99011.31;5132685;27;19984;-39
2022/11/22 05:31:21;;;;;;;;;;;;;;;19.28;47.04;99009.34;5132123;27;19995;-38
2022/11/22 05:33:47;;;;;;;;;;;;;;;19.27;46.97;99010.50;5134117;27;19973;-38
2022/11/22 05:36:13;;;;;;;;;;;;;;;19.27;47.08;99027.06;5151598;27;19977;-38
2022/11/22 05:38:39;;;;;;;;;;;;;;;19.28;47.36;99023.16;5151730;27;19923;-39
2022/11/22 05:41:05;;;;;;;;;;;;;;;19.27;47.02;99021.53;5131720;27;19972;-39
2022/11/22 05:43:30;;;;;;;;;;;;;;;19.28;47.11;99028.66;5143143;27;20023;-38
2022/11/22 05:46:03;;;;;;;;;;;;;;;19.27;47.15;99029.81;5131033;27;20111;-39
2022/11/22 05:48:28;;;;;;;;;;;;;;;19.28;47.02;99025.91;5150829;27;19969;-37
2022/11/22 05:50:54;;;;;;;;;;;;;;;19.27;46.97;99035.34;5150514;27;19923;-38
2022/11/22 05:53:19;;;;;;;;;;;;;;;19.27;47.11;99030.63;5149291;27;19923;-39
2022/11/22 05:55:45;;;;;;;;;;;;;;;19.26;47.26;99031.75;5150236;27;20295;-39
2022/11/22 05:58:11;;;;;;;;;;;;;;;19.26;46.92;99031.75;5151890;27;19950;-39
2022/11/22 06:00:36;;;;;;;;;;;;;;;19.26;46.90;99029.00;5148494;27;19923;-40
2022/11/22 06:03:02;;;;;;;;;;;;;;;19.26;47.27;99029.00;5151150;27;20349;-38
2022/11/22 06:05:28;;;;;;;;;;;;;;;19.27;47.01;99035.34;5136308;27;19927;-39
2022/11/22 06:07:56;;;;;;;;;;;;;;;19.26;46.92;99034.53;5127881;27;19973;-39
2022/11/22 06:10:21;;;;;;;;;;;;;;;19.26;47.07;99039.25;5147012;27;19934;-39
2022/11/22 06:12:47;;;;;;;;;;;;;;;19.26;46.92;99029.00;5147624;27;19926;-39
2022/11/22 06:15:12;;;;;;;;;;;;;;;19.25;46.86;99030.13;5149037;27;20114;-39
2022/11/22 06:17:38;;;;;;;;;;;;;;;19.26;46.94;99034.53;5147314;27;20019;-38
2022/11/22 06:20:03;;;;;;;;;;;;;;;19.26;47.24;99037.28;5148809;27;19938;-39
2022/11/22 06:22:32;;;;;;;;;;;;;;;19.26;47.21;99036.47;5151089;27;19949;-37
2022/11/22 06:24:57;;;;;;;;;;;;;;;19.26;47.10;99040.03;5148985;27;20367;-37
2022/11/22 06:27:23;;;;;;;;;;;;;;;19.26;47.15;99033.72;5150998;27;20122;-40
2022/11/22 06:29:48;;;;;;;;;;;;;;;19.23;45.99;99035.16;5143998;27;19930;-39
2022/11/22 06:32:14;;;;;;;;;;;;;;;19.25;47.08;99040.34;5147343;27;19923;-39
2022/11/22 06:34:39;;;;;;;;;;;;;;;19.24;46.04;99042.31;5147171;27;19991;-39
2022/11/22 06:37:05;;;;;;;;;;;;;;;19.25;46.82;99046.69;5150091;27;19938;-40
2022/11/22 06:39:30;;;;;;;;;;;;;;;18.51;41.32;99039.34;5146490;27;19927;-40
2022/11/22 06:41:57;;;;;;;;;;;;;;;18.42;43.50;99045.97;5136099;27;19942;-39
2022/11/22 06:44:22;;;;;;;;;;;;;;;18.78;42.54;99048.47;5140327;27;19927;-37
2022/11/22 06:46:48;;;;;;;;;;;;;;;18.99;44.40;99048.66;5145782;27;19937;-39
2022/11/22 06:49:13;;;;;;;;;;;;;;;19.09;45.25;99055.81;5147605;27;20328;-40
2022/11/22 06:51:39;;;;;;;;;;;;;;;19.15;45.44;99046.22;5143802;27;19929;-39
2022/11/22 06:54:05;;;;;;;;;;;;;;;19.17;45.59;99044.78;5145439;27;19931;-38
2022/11/22 06:56:31;;;;;;;;;;;;;;;19.19;45.86;99039.72;5133387;27;19923;-37
2022/11/22 06:58:57;;;;;;;;;;;;;;;19.20;45.59;99038.56;5127623;27;19968;-37
2022/11/22 07:01:24;;;;;;;;;;;;;;;19.21;45.70;99044.91;5137159;27;20023;-39
2022/11/22 07:03:50;;;;;;;;;;;;;;;19.22;44.53;99052.06;5137116;27;19927;-39
2022/11/22 07:06:16;;;;;;;;;;;;;;;19.22;45.21;99047.34;5138817;27;19923;-38
2022/11/22 07:08:42;;;;;;;;;;;;;;;19.23;45.45;99054.50;5120430;27;20395;-39
2022/11/22 07:11:08;;;;;;;;;;;;;;;19.23;45.93;99071.03;5137107;27;19978;-39
2022/11/22 07:13:34;;;;;;;;;;;;;;;19.23;45.57;99071.03;5124128;27;19923;-39
2022/11/22 07:16:00;;;;;;;;;;;;;;;19.24;45.58;99071.84;5142292;27;19938;-39
2022/11/22 07:18:26;;;;;;;;;;;;;;;19.25;45.78;99070.72;5119074;27;19923;-39
2022/11/22 07:20:51;;;;;;;;;;;;;;;19.25;45.75;99066.00;5140656;27;20221;-38
2022/11/22 07:23:17;;;;;;;;;;;;;;;19.26;45.83;99069.59;5138321;27;19923;-38
2022/11/22 07:25:44;;;;;;;;;;;;;;;19.26;46.11;99067.66;5142071;27;20057;-38
2022/11/22 07:28:10;;;;;;;;;;;;;;;19.26;45.87;99080.63;5137389;27;20390;-37
2022/11/22 07:30:35;;;;;;;;;;;;;;;19.30;45.59;99076.09;5139286;27;20406;-37
2022/11/22 07:33:08;;;;;;;;;;;;;;;19.30;45.75;99082.41;5145110;27;19932;-39
2022/11/22 07:35:34;;;;;;;;;;;;;;;19.32;45.78;99092.31;5139752;27;19934;-39
2022/11/22 07:38:00;;;;;;;;;;;;;;;19.30;45.87;99084.38;5144077;27;20425;-39
2022/11/22 07:40:26;;;;;;;;;;;;;;;19.30;45.93;99092.66;5132847;27;19931;-40
2022/11/22 07:42:51;;;;;;;;;;;;;;;19.29;45.65;99086.28;5138618;27;19931;-39
2022/11/22 07:45:23;;;;;;;;;;;;;;;19.29;45.57;99094.56;5131528;27;21679;-39
2022/11/22 07:47:49;;;;;;;;;;;;;;;19.31;45.57;99091.50;5121772;27;19980;-37
2022/11/22 07:50:14;;;;;;;;;;;;;;;19.29;45.60;99091.81;5140285;27;19976;-40
2022/11/22 07:52:40;;;;;;;;;;;;;;;19.31;45.73;99094.25;5142058;27;19923;-40
2022/11/22 07:55:06;;;;;;;;;;;;;;;19.31;45.82;99088.75;5133743;27;19931;-39
2022/11/22 07:57:38;;;;;;;;;;;;;;;19.32;45.59;99086.78;5112450;27;19926;-37
2022/11/22 08:00:04;;;;;;;;;;;;;;;19.33;45.95;99088.41;5135173;27;19968;-39
2022/11/22 08:02:30;;;;;;;;;;;;;;;19.33;46.19;99077.38;5131043;27;19946;-38
2022/11/22 08:04:55;;;;;;;;;;;;;;;19.32;45.66;99079.31;5122950;27;19934;-39
2022/11/22 08:07:21;;;;;;;;;;;;;;;19.32;46.02;99087.59;5119587;27;19935;-39
2022/11/22 08:09:46;;;;;;;;;;;;;;;19.33;45.77;99091.97;5125275;27;19935;-39
2022/11/22 08:12:12;;;;;;;;;;;;;;;19.31;45.94;99091.50;5122696;27;19981;-40
2022/11/22 08:14:38;;;;;;;;;;;;;;;19.34;46.07;99098.31;5121107;27;19923;-39
2022/11/22 08:17:03;;;;;;;;;;;;;;;19.35;46.04;99108.22;5125969;27;19938;-38
2022/11/22 08:19:29;;;;;;;;;;;;;;;19.34;46.37;99109.34;5125940;27;19931;-39
2022/11/22 08:21:55;;;;;;;;;;;;;;;19.35;46.21;99111.00;5131922;27;19927;-37
2022/11/22 08:24:24;;;;;;;;;;;;;;;19.35;46.05;99109.03;5128301;27;19923;-39
2022/11/22 08:26:51;;;;;;;;;;;;;;;19.34;46.04;99107.38;5124616;27;19922;-37
2022/11/22 08:29:16;;;;;;;;;;;;;;;19.36;46.06;99109.84;5117370;27;20009;-37
2022/11/22 08:31:42;;;;;;;;;;;;;;;19.36;46.24;99107.09;5126699;27;20362;-39
2022/11/22 08:34:07;;;;;;;;;;;;;;;19.36;46.16;99105.13;5128542;27;19978;-39
2022/11/22 08:36:33;;;;;;;;;;;;;;;19.39;46.24;99110.00;5131296;27;20007;-37
2022/11/22 08:38:58;;;;;;;;;;;;;;;19.40;45.16;99111.63;5131116;27;19924;-41
2022/11/22 08:41:24;;;;;;;;;;;;;;;19.43;45.95;99115.66;5127130;27;19930;-38
2022/11/22 08:43:50;;;;;;;;;;;;;;;19.43;46.37;99121.19;5133707;27;19931;-39
2022/11/22 08:46:15;;;;;;;;;;;;;;;19.41;46.23;99121.53;5136786;27;19931;-39
2022/11/22 08:48:41;;;;;;;;;;;;;;;19.41;46.57;99120.72;5133380;27;19935;-38
2022/11/22 08:51:07;;;;;;;;;;;;;;;19.40;46.20;99113.56;5134623;27;19930;-39
2022/11/22 08:53:34;;;;;;;;;;;;;;;19.39;46.62;99118.28;5111483;27;20394;-36
2022/11/22 08:56:00;;;;;;;;;;;;;;;19.38;46.04;99110.31;5121180;27;19979;-38
2022/11/22 08:58:25;;;;;;;;;;;;;;;19.41;46.27;99112.44;5136722;27;19930;-39
2022/11/22 09:00:51;;;;;;;;;;;;;;;19.39;46.36;99120.25;5096949;27;19938;-39
2022/11/22 09:03:17;;;;;;;;;;;;;;;19.39;46.32;99114.72;5108336;27;19927;-37
2022/11/22 09:05:42;;;;;;;;;;;;;;;19.39;46.56;99117.47;5122672;27;19931;-38
2022/11/22 09:08:28;;;;;;;;;;;;;;;19.40;46.48;99121.84;5118514;27;19954;-39
2022/11/22 09:11:01;;;;;;;;;;;;;;;19.39;46.31;99118.28;5122344;27;19927;-39
2022/11/22 09:13:27;;;;;;;;;;;;;;;19.39;46.62;99121.06;5122051;27;19954;-38
2022/11/22 09:15:52;;;;;;;;;;;;;;;19.40;46.59;99121.84;5120909;27;19930;-39
2022/11/22 09:18:18;;;;;;;;;;;;;;;19.41;46.35;99121.53;5125156;27;19935;-40
2022/11/22 09:20:43;;;;;;;;;;;;;;;19.44;46.04;99122.84;5127211;27;19946;-39
2022/11/22 09:23:09;;;;;;;;;;;;;;;19.45;46.02;99116.16;5134229;27;19927;-38
2022/11/22 09:25:34;;;;;;;;;;;;;;;19.44;46.43;99117.31;5127057;27;19930;-39
2022/11/22 09:28:02;;;;;;;;;;;;;;;19.45;46.45;99121.69;5133198;27;19935;-40
2022/11/22 09:30:28;;;;;;;;;;;;;;;19.43;46.38;99124.78;5120181;27;19942;-41
2022/11/22 09:32:53;;;;;;;;;;;;;;;19.35;44.84;99122.03;5111593;27;20384;-40
2022/11/22 09:35:19;;;;;;;;;;;;;;;19.42;45.39;99133.38;5115740;27;19931;-38
2022/11/22 09:37:44;;;;;;;;;;;;;;;19.46;45.66;99135.16;5097361;27;19931;-39
2022/11/22 09:40:10;;;;;;;;;;;;;;;19.46;46.00;99134.34;5116541;27;19938;-39
2022/11/22 09:42:43;;;;;;;;;;;;;;;19.45;46.21;99138.25;5113675;27;19973;-36
2022/11/22 09:45:28;;;;;;;;;;;;;;;19.45;46.46;99138.25;5111389;27;20959;-39
2022/11/22 09:48:14;;;;;;;;;;;;;;;19.46;46.09;99142.63;5117940;27;19965;-39
2022/11/22 09:50:44;;;;;;;;;;;;;;;19.47;46.42;99144.25;5113135;27;20467;-38
2022/11/22 09:53:11;;;;;;;;;;;;;;;19.46;46.56;99137.09;5131872;27;19992;-39
2022/11/22 09:55:38;;;;;;;;;;;;;;;19.45;46.25;99135.50;5123399;27;20408;-38
2022/11/22 09:58:23;;;;;;;;;;;;;;;19.46;46.28;99142.63;5130080;27;20034;-39
2022/11/22 10:00:49;;;;;;;;;;;;;;;19.45;46.46;99130.78;5110508;27;19934;-37
2022/11/22 10:03:23;;;;;;;;;;;;;;;19.47;46.41;99124.91;5133659;27;20504;-39
2022/11/22 10:05:51;;;;;;;;;;;;;;;19.46;46.69;99126.88;5126019;27;19967;-39
2022/11/22 10:08:28;;;;;;;;;;;;;;;19.47;46.60;99116.63;5128503;27;20478;-38
2022/11/22 10:10:54;;;;;;;;;;;;;;;19.47;46.47;99125.75;5109213;27;20085;-38
2022/11/22 10:13:29;;;;;;;;;;;;;;;19.47;46.61;99125.75;5134384;27;19966;-38
2022/11/22 10:16:13;;;;;;;;;;;;;;;19.48;46.26;99110.81;5136168;27;20027;-39
2022/11/22 10:18:58;;;;;;;;;;;;;;;19.50;46.14;99113.22;5133595;27;19963;-40
2022/11/22 10:21:24;;;;;;;;;;;;;;;19.50;46.31;99105.75;5118819;27;19971;-39
2022/11/22 10:23:49;;;;;;;;;;;;;;;19.48;46.57;99105.28;5128375;27;20102;-39
2022/11/22 10:26:19;;;;;;;;;;;;;;;19.50;46.66;99107.72;5124041;27;20446;-39
2022/11/22 10:28:51;;;;;;;;;;;;;;;19.48;46.38;99102.53;5129094;27;20546;-38
2022/11/22 10:31:17;;;;;;;;;;;;;;;19.48;46.49;99097.00;5123835;27;20026;-38
2022/11/22 10:33:46;;;;;;;;;;;;;;;19.49;46.56;99100.56;5103084;27;20033;-38
2022/11/22 10:36:31;;;;;;;;;;;;;;;19.49;46.66;99095.84;5127712;27;19972;-38
2022/11/22 10:39:07;;;;;;;;;;;;;;;19.46;45.80;99104.78;5105905;27;19931;-38
2022/11/22 10:41:38;;;;;;;;;;;;;;;19.49;46.60;99095.06;5129707;27;19970;-38
2022/11/22 10:44:23;;;;;;;;;;;;;;;19.48;46.29;99091.47;5120788;27;20393;-38
2022/11/22 10:46:58;;;;;;;;;;;;;;;19.48;46.35;99087.91;5124604;27;20397;-39
2022/11/22 10:49:44;;;;;;;;;;;;;;;19.49;46.11;99081.25;5125701;27;19958;-39
2022/11/22 10:52:18;;;;;;;;;;;;;;;19.49;46.42;99075.72;5105463;27;20486;-39
2022/11/22 10:54:51;;;;;;;;;;;;;;;19.48;46.56;99076.88;5134412;27;19969;-39
2022/11/22 10:57:26;;;;;;;;;;;;;;;19.50;46.30;99075.38;5133476;27;20224;-38
2022/11/22 11:00:01;;;;;;;;;;;;;;;19.51;46.30;99076.19;5117162;27;20020;-38
2022/11/22 11:02:46;;;;;;;;;;;;;;;19.49;46.53;99059.97;5128870;27;19927;-39
2022/11/22 11:05:13;;;;;;;;;;;;;;;19.50;46.53;99061.59;5121002;27;20025;-39
2022/11/22 11:07:45;;;;;;;;;;;;;;;19.51;46.54;99062.38;5129874;27;20172;-37
2022/11/22 11:10:19;;;;;;;;;;;;;;;19.51;46.79;99045.81;5108217;27;20272;-39
2022/11/22 11:12:59;;;;;;;;;;;;;;;19.52;46.70;99041.94;5123021;27;20663;-38
2022/11/22 11:15:44;;;;;;;;;;;;;;;19.51;46.87;99041.09;5135461;27;19998;-39
2022/11/22 11:18:14;;;;;;;;;;;;;;;19.52;46.39;99050.22;5116119;27;19927;-39
2022/11/22 11:20:40;;;;;;;;;;;;;;;19.54;46.69;99047.94;5128925;27;20507;-38
2022/11/22 11:23:07;;;;;;;;;;;;;;;19.53;46.54;99044.38;5120941;27;20017;-37
2022/11/22 11:25:41;;;;;;;;;;;;;;;19.53;46.54;99046.31;5137677;27;20439;-39
2022/11/22 11:28:15;;;;;;;;;;;;;;;19.53;46.78;99041.59;5104041;27;21144;-39
2022/11/22 11:30:42;;;;;;;;;;;;;;;19.53;46.60;99036.09;5111241;28;20405;-38
2022/11/22 11:33:13;;;;;;;;;;;;;;;19.53;46.62;99035.28;5119963;27;19979;-39
2022/11/22 11:35:39;;;;;;;;;;;;;;;19.53;46.27;99038.84;5116059;28;19963;-39
2022/11/22 11:38:23;;;;;;;;;;;;;;;19.54;46.46;99045.19;5115221;28;20014;-39
2022/11/22 11:40:48;;;;;;;;;;;;;;;19.53;46.54;99038.84;5085932;28;19932;-38
2022/11/22 11:43:15;;;;;;;;;;;;;;;19.52;46.38;99037.22;5096520;28;19943;-38
2022/11/22 11:45:41;;;;;;;;;;;;;;;19.53;46.58;99038.84;5102719;27;20049;-39
2022/11/22 11:48:27;;;;;;;;;;;;;;;19.53;46.37;99033.31;5090670;28;20038;-39
2022/11/22 11:51:12;;;;;;;;;;;;;;;19.52;46.73;99037.22;5090390;27;20386;-39
2022/11/22 11:53:38;;;;;;;;;;;;;;;19.52;46.68;99034.47;5094934;28;19935;-37
2022/11/22 11:56:23;;;;;;;;;;;;;;;19.53;47.03;99038.03;5099413;27;20094;-39
2022/11/22 11:58:50;;;;;;;;;;;;;;;19.51;47.06;99038.34;5101575;27;20010;-40
2022/11/22 12:01:17;;;;;;;;;;;;;;;19.52;46.87;99037.22;5111096;28;19974;-39
2022/11/22 12:03:49;;;;;;;;;;;;;;;19.52;46.85;99030.91;5086248;28;19946;-38
2022/11/22 12:06:14;;;;;;;;;;;;;;;19.52;46.73;99028.16;5103237;28;20863;-39
2022/11/22 12:08:40;;;;;;;;;;;;;;;19.52;46.80;99033.66;5107053;28;19928;-39
2022/11/22 12:11:07;;;;;;;;;;;;;;;19.52;46.69;99030.91;5109611;28;19924;-40
2022/11/22 12:13:53;;;;;;;;;;;;;;;19.51;46.69;99024.53;5089685;27;20204;-40
2022/11/22 12:16:39;;;;;;;;;;;;;;;19.59;44.24;99024.84;5089792;28;19954;-41
2022/11/22 12:19:24;;;;;;;;;;;;;;;19.62;45.68;99021.47;5110408;27;20388;-37
2022/11/22 12:21:56;;;;;;;;;;;;;;;19.60;45.94;99026.47;5096541;28;19980;-37
2022/11/22 12:24:23;;;;;;;;;;;;;;;19.65;45.19;99035.44;5104579;27;19966;-39
2022/11/22 12:27:09;;;;;;;;;;;;;;;19.71;45.25;99030.53;5090330;27;19932;-42
2022/11/22 12:29:36;;;;;;;;;;;;;;;19.76;43.91;99038.66;5091483;28;20399;-41
2022/11/22 12:32:05;;;;;;;;;;;;;;;19.79;44.21;99032.47;5095507;28;19982;-42
2022/11/22 12:34:32;;;;;;;;;;;;;;;19.78;44.04;99039.13;5111320;27;20552;-40
2022/11/22 12:37:14;;;;;;;;;;;;;;;19.72;45.33;99034.91;5113066;27;20372;-38
2022/11/22 12:39:40;;;;;;;;;;;;;;;19.69;45.70;99035.56;5111441;28;20351;-38
2022/11/22 12:42:08;;;;;;;;;;;;;;;19.65;45.23;99026.34;5110639;28;20644;-39
2022/11/22 12:44:36;;;;;;;;;;;;;;;19.65;45.72;99042.91;5114006;28;20367;-38
2022/11/22 12:47:11;;;;;;;;;;;;;;;19.66;45.40;99025.22;5084151;28;19970;-39
2022/11/22 12:49:40;;;;;;;;;;;;;;;19.65;45.84;99035.44;5093518;28;20053;-38
2022/11/22 12:52:26;;;;;;;;;;;;;;;19.65;45.46;99032.69;5100343;28;20401;-38
2022/11/22 12:55:11;;;;;;;;;;;;;;;19.64;45.94;99035.75;5104162;28;19969;-38
2022/11/22 12:57:42;;;;;;;;;;;;;;;19.62;44.82;99036.09;5107927;28;20340;-39
2022/11/22 13:00:12;;;;;;;;;;;;;;;19.56;44.04;99031.88;5105237;28;20343;-38
2022/11/22 13:02:58;;;;;;;;;;;;;;;19.62;45.39;99036.09;5125248;28;20388;-40
2022/11/22 13:05:29;;;;;;;;;;;;;;;19.64;44.57;99041.28;5110446;28;20290;-38